Time;durP1;ratioP1;P1;durP2;ratioP2;P2;SDS_P1;SDS_P2;PMS_P1;PMS_P2;Temp;Humidity;BMP_temperature;BMP_pressure;BME280_temperature;BME280_humidity;BME280_pressure;Samples;Min_cycle;Max_cycle;Signal;HPM_P1;HPM_P2
2022/10/21 00:02:04;;;;;;;27.40;23.88;;;;;;;12.46;100.00;100628.63;6271789;22;20007;-85
2022/10/21 00:04:31;;;;;;;29.45;23.70;;;;;;;12.45;100.00;100634.88;6269653;22;20004;-87
2022/10/21 00:06:56;;;;;;;27.88;23.02;;;;;;;12.40;100.00;100637.00;6272010;22;20016;-85
2022/10/21 00:09:21;;;;;;;32.90;24.45;;;;;;;12.37;100.00;100622.97;6272353;22;20299;-85
2022/10/21 00:11:47;;;;;;;30.08;23.98;;;;;;;12.34;100.00;100621.38;6269669;22;20007;-86
2022/10/21 00:14:12;;;;;;;28.70;24.27;;;;;;;12.28;100.00;100619.06;6270042;22;20030;-85
2022/10/21 00:16:37;;;;;;;31.55;24.05;;;;;;;12.29;100.00;100622.59;6271346;22;20025;-86
2022/10/21 00:19:02;;;;;;;33.70;23.52;;;;;;;12.23;100.00;100613.16;6270659;22;20030;-86
2022/10/21 00:21:28;;;;;;;32.70;24.88;;;;;;;12.24;100.00;100608.69;6270597;22;20003;-86
2022/10/21 00:23:53;;;;;;;33.10;25.42;;;;;;;12.20;100.00;100602.66;6270499;22;20012;-85
2022/10/21 00:26:19;;;;;;;34.47;24.88;;;;;;;12.24;100.00;100611.34;6270965;22;20004;-85
2022/10/21 00:28:45;;;;;;;31.08;25.20;;;;;;;12.23;100.00;100610.50;6270487;22;20003;-85
2022/10/21 00:31:12;;;;;;;34.25;25.00;;;;;;;12.20;100.00;100602.66;6268719;22;20053;-85
2022/10/21 00:33:38;;;;;;;30.05;24.77;;;;;;;12.20;100.00;100606.19;6270117;22;20031;-85
2022/10/21 00:36:06;;;;;;;33.70;25.90;;;;;;;12.21;100.00;100612.41;6270118;22;20061;-87
2022/10/21 00:38:32;;;;;;;29.90;25.52;;;;;;;12.19;100.00;100615.16;6271426;22;20006;-86
2022/10/21 00:40:58;;;;;;;31.55;25.48;;;;;;;12.16;100.00;100609.13;6270296;22;20007;-85
2022/10/21 00:43:25;;;;;;;31.80;25.20;;;;;;;12.11;100.00;100605.91;6270212;22;20581;-86
2022/10/21 00:45:54;;;;;;;31.08;24.15;;;;;;;12.01;100.00;100610.94;6271124;22;20049;-85
2022/10/21 00:48:40;;;;;;;30.98;26.00;;;;;;;12.04;100.00;100613.44;6269306;22;20030;-85
2022/10/21 00:51:10;;;;;;;34.25;26.10;;;;;;;12.02;100.00;100606.47;6269554;22;20054;-85
2022/10/21 00:53:38;;;;;;;36.15;26.73;;;;;;;12.07;100.00;100607.03;6271705;22;20007;-85
2022/10/21 00:56:11;;;;;;;31.73;26.08;;;;;;;12.08;100.00;100606.06;6271005;22;20015;-85
2022/10/21 00:58:36;;;;;;;34.58;26.88;;;;;;;12.09;100.00;100600.66;6274111;22;20012;-86
2022/10/21 01:01:03;;;;;;;31.02;24.40;;;;;;;12.08;100.00;100592.75;6290718;22;20002;-85
2022/10/21 01:03:30;;;;;;;28.48;24.65;;;;;;;12.09;100.00;100586.47;6296649;22;19991;-86
2022/10/21 01:05:57;;;;;;;34.15;25.85;;;;;;;12.06;100.00;100587.50;6294918;22;20046;-85
2022/10/21 01:08:23;;;;;;;32.13;24.98;;;;;;;12.01;100.00;100586.09;6278371;22;20497;-85
2022/10/21 01:10:49;;;;;;;30.58;24.67;;;;;;;11.95;100.00;100582.84;6272204;22;20003;-86
2022/10/21 01:13:20;;;;;;;34.00;25.48;;;;;;;11.91;100.00;100581.31;6275207;22;20098;-86
2022/10/21 01:16:06;;;;;;;37.50;26.13;;;;;;;11.84;100.00;100577.28;6276276;22;20022;-85
2022/10/21 01:18:42;;;;;;;33.95;25.58;;;;;;;11.81;100.00;100565.91;6277683;22;20000;-86
2022/10/21 01:21:08;;;;;;;34.00;24.98;;;;;;;11.80;100.00;100567.72;6275419;22;20008;-83
2022/10/21 01:24:07;;;;;;;31.67;24.80;;;;;;;11.71;100.00;100557.63;6277213;22;20076;-85
2022/10/21 01:27:11;;;;;;;32.38;26.25;;;;;;;11.70;100.00;100551.44;6275859;22;20010;-84
2022/10/21 01:29:49;;;;;;;38.10;27.15;;;;;;;11.71;100.00;100547.81;6209902;23;20012;-85
2022/10/21 01:32:32;;;;;;;42.63;27.02;;;;;;;11.63;100.00;100546.56;6208347;23;20481;-85
2022/10/21 01:35:24;;;;;;;32.30;24.77;;;;;;;11.65;100.00;100544.66;6207400;23;20004;-85
2022/10/21 01:38:04;;;;;;;33.03;24.70;;;;;;;11.58;100.00;100536.19;6209448;23;20012;-85
2022/10/21 01:40:36;;;;;;;31.65;25.10;;;;;;;11.58;100.00;100538.84;6208404;23;20645;-85
2022/10/21 01:43:21;;;;;;;34.28;26.73;;;;;;;11.58;100.00;100533.50;6209885;23;20470;-85
2022/10/21 01:45:55;;;;;;;38.63;26.38;;;;;;;11.60;100.00;100520.09;6207966;23;20017;-85
2022/10/21 01:48:25;;;;;;;35.72;26.02;;;;;;;11.57;100.00;100520.25;6207083;23;20423;-86
2022/10/21 01:50:57;;;;;;;37.85;25.77;;;;;;;11.55;100.00;100514.19;6182716;23;20442;-85
2022/10/21 01:53:27;;;;;;;32.35;24.23;;;;;;;11.52;100.00;100517.00;6212066;23;20088;-84
2022/10/21 01:55:56;;;;;;;34.75;24.50;;;;;;;11.48;100.00;100513.66;6210538;23;20047;-85
2022/10/21 01:58:27;;;;;;;35.30;25.80;;;;;;;11.45;100.00;100503.19;6209533;23;20034;-84
2022/10/21 02:00:56;;;;;;;33.47;25.25;;;;;;;11.45;100.00;100505.84;6208592;23;20072;-86
2022/10/21 02:03:26;;;;;;;35.40;25.75;;;;;;;11.44;100.00;100507.66;6213495;23;20286;-85
2022/10/21 02:05:52;;;;;;;32.30;24.40;;;;;;;11.37;100.00;100503.66;6250673;22;20003;-85
2022/10/21 02:08:17;;;;;;;35.80;25.35;;;;;;;11.32;100.00;100500.41;6282616;22;20000;-86
2022/10/21 02:10:46;;;;;;;29.20;23.17;;;;;;;11.27;100.00;100498.97;6286776;22;19984;-85
2022/10/21 02:13:19;;;;;;;32.33;24.20;;;;;;;11.26;100.00;100495.44;6285138;22;20019;-85
2022/10/21 02:15:45;;;;;;;33.15;23.95;;;;;;;11.26;100.00;100484.78;6290006;22;20011;-85
2022/10/21 02:18:18;;;;;;;34.97;25.05;;;;;;;11.31;100.00;100481.84;6278491;22;20007;-86
2022/10/21 02:20:44;;;;;;;;;;;;;;;11.23;100.00;100485.81;6267460;22;20087;-84
2022/10/21 02:23:14;;;;;;;36.38;25.52;;;;;;;11.26;100.00;100482.13;6270641;22;19937;-85
2022/10/21 02:25:43;;;;;;;29.25;23.65;;;;;;;11.26;100.00;100491.94;6272699;22;20003;-85
2022/10/21 02:28:09;;;;;;;30.25;23.55;;;;;;;11.20;100.00;100486.03;6272699;22;20006;-84
2022/10/21 02:31:10;;;;;;;32.42;24.30;;;;;;;11.26;100.00;100487.44;6272200;22;20004;-85
2022/10/21 02:33:50;;;;;;;35.53;24.00;;;;;;;11.18;100.00;100482.56;6274359;22;20014;-85
2022/10/21 02:36:27;;;;;;;32.35;23.60;;;;;;;11.17;100.00;100494.19;6271477;22;20284;-85
2022/10/21 02:39:02;;;;;;;33.78;23.75;;;;;;;11.13;100.00;100495.31;6274546;22;20429;-85
2022/10/21 02:41:28;;;;;;;27.65;22.20;;;;;;;11.06;100.00;100491.28;6273212;22;20074;-86
2022/10/21 02:44:00;;;;;;;28.17;22.73;;;;;;;11.09;100.00;100487.59;6270901;22;20014;-85
2022/10/21 02:46:34;;;;;;;32.97;23.55;;;;;;;11.06;100.00;100482.44;6270085;22;19999;-86
2022/10/21 02:48:59;;;;;;;29.20;23.40;;;;;;;11.03;100.00;100483.47;6273812;22;20000;-86
2022/10/21 02:51:25;;;;;;;31.48;23.52;;;;;;;11.05;100.00;100478.06;6269648;22;20007;-85
2022/10/21 02:53:50;;;;;;;31.92;23.77;;;;;;;10.99;100.00;100476.59;6273728;22;20011;-85
2022/10/21 02:56:15;;;;;;;29.83;22.38;;;;;;;10.97;100.00;100471.38;6271734;22;20417;-84
2022/10/21 02:58:40;;;;;;;26.95;21.35;;;;;;;10.90;100.00;100478.00;6271238;22;20014;-86
2022/10/21 03:01:06;;;;;;;29.58;21.10;;;;;;;10.83;100.00;100471.34;6272733;22;20342;-84
2022/10/21 03:03:31;;;;;;;31.92;23.23;;;;;;;10.90;100.00;100464.69;6271146;22;20069;-85
2022/10/21 03:05:57;;;;;;;32.17;23.13;;;;;;;10.91;100.00;100476.19;6273435;22;20027;-86
2022/10/21 03:08:22;;;;;;;32.25;24.42;;;;;;;10.91;100.00;100476.19;6270671;22;20034;-86
2022/10/21 03:10:49;;;;;;;33.47;23.65;;;;;;;10.82;100.00;100476.72;6272302;22;20370;-86
2022/10/21 03:13:14;;;;;;;33.53;24.13;;;;;;;10.82;100.00;100458.09;6297265;22;20439;-86
2022/10/21 03:15:39;;;;;;;33.17;24.00;;;;;;;10.85;100.00;100472.09;6273012;22;20003;-85
2022/10/21 03:18:05;;;;;;;31.27;23.17;;;;;;;10.77;100.00;100470.81;6268130;22;20390;-85
2022/10/21 03:20:30;;;;;;;30.98;23.48;;;;;;;10.79;100.00;100474.25;6268418;22;20057;-86
2022/10/21 03:22:55;;;;;;;30.92;22.50;;;;;;;10.78;100.00;100472.53;6267774;22;20011;-85
2022/10/21 03:25:20;;;;;;;32.03;22.90;;;;;;;10.80;100.00;100479.50;6268407;22;20003;-85
2022/10/21 03:27:48;;;;;;;26.85;21.27;;;;;;;10.75;100.00;100484.22;6269550;22;20417;-84
2022/10/21 03:30:14;;;;;;;29.05;20.95;;;;;;;10.70;100.00;100492.47;6268265;22;20000;-86
2022/10/21 03:32:39;;;;;;;28.38;21.13;;;;;;;10.60;100.00;100485.09;6269868;22;20029;-86
2022/10/21 03:35:05;;;;;;;26.35;20.52;;;;;;;10.67;100.00;100489.13;6269639;22;20031;-85
2022/10/21 03:37:30;;;;;;;26.98;20.88;;;;;;;10.64;100.00;100468.84;6270368;22;20004;-87
2022/10/21 03:39:55;;;;;;;28.15;21.33;;;;;;;10.59;100.00;100462.09;6266643;22;20039;-86
2022/10/21 03:42:20;;;;;;;26.48;20.45;;;;;;;10.63;100.00;100469.81;6276243;22;20007;-85
2022/10/21 03:44:46;;;;;;;26.58;19.98;;;;;;;10.52;100.00;100461.56;6274428;22;20011;-85
2022/10/21 03:47:11;;;;;;;28.30;20.02;;;;;;;10.57;100.00;100464.81;6284001;22;19999;-85
2022/10/21 03:49:36;;;;;;;28.55;20.10;;;;;;;10.53;100.00;100468.59;6284273;22;20003;-86
2022/10/21 03:52:02;;;;;;;26.33;19.55;;;;;;;10.51;100.00;100467.00;6285493;22;20019;-86
2022/10/21 03:54:27;;;;;;;28.13;19.45;;;;;;;10.45;100.00;100455.75;6284554;22;20019;-84
2022/10/21 03:56:52;;;;;;;28.25;18.50;;;;;;;10.45;100.00;100454.91;6285516;22;20015;-85
2022/10/21 03:59:17;;;;;;;26.15;19.70;;;;;;;10.49;100.00;100459.06;6284246;22;20041;-86
2022/10/21 04:01:43;;;;;;;26.50;18.83;;;;;;;10.44;100.00;100450.50;6279316;22;20435;-86
2022/10/21 04:04:08;;;;;;;25.73;18.65;;;;;;;10.42;100.00;100445.28;6272952;22;20007;-85
2022/10/21 04:06:34;;;;;;;25.08;17.20;;;;;;;10.40;100.00;100449.81;6275741;22;20000;-86
2022/10/21 04:08:59;;;;;;;24.30;16.98;;;;;;;10.40;100.00;100447.16;6277666;22;20361;-85
2022/10/21 04:11:25;;;;;;;24.10;17.55;;;;;;;10.35;100.00;100457.19;6275671;22;20083;-85
2022/10/21 04:13:50;;;;;;;22.42;16.13;;;;;;;10.31;100.00;100468.94;6276348;22;20079;-86
2022/10/21 04:16:19;;;;;;;23.05;16.52;;;;;;;10.26;100.00;100462.19;6275462;22;20086;-85
2022/10/21 04:18:44;;;;;;;20.48;15.15;;;;;;;10.19;100.00;100456.28;6274596;22;20078;-85
2022/10/21 04:21:09;;;;;;;19.50;15.20;;;;;;;10.11;100.00;100453.19;6275203;22;20035;-86
2022/10/21 04:23:35;;;;;;;21.00;15.23;;;;;;;10.11;100.00;100462.03;6273927;22;20207;-86
2022/10/21 04:26:01;;;;;;;18.27;15.02;;;;;;;10.05;100.00;100461.53;6273996;22;20007;-85
2022/10/21 04:28:27;;;;;;;18.27;15.02;;;;;;;10.08;100.00;100458.72;6273321;22;20003;-85
2022/10/21 04:30:52;;;;;;;20.70;14.15;;;;;;;10.12;100.00;100461.13;6272937;22;20065;-85
2022/10/21 04:33:18;;;;;;;19.45;14.70;;;;;;;10.08;100.00;100477.31;6272911;22;20007;-86
2022/10/21 04:35:43;;;;;;;17.08;13.80;;;;;;;10.05;100.00;100475.69;6274992;22;20571;-86
2022/10/21 04:38:08;;;;;;;21.30;14.40;;;;;;;9.98;100.00;100475.13;6273965;22;20003;-86
2022/10/21 04:40:34;;;;;;;18.17;14.05;;;;;;;9.96;100.00;100471.72;6273135;22;20007;-86
2022/10/21 04:42:59;;;;;;;21.58;13.50;;;;;;;9.90;100.00;100469.38;6274153;22;20027;-85
2022/10/21 04:45:24;;;;;;;19.20;14.10;;;;;;;9.92;100.00;100466.66;6271647;22;20422;-84
2022/10/21 04:47:50;;;;;;;16.25;13.05;;;;;;;9.88;100.00;100473.94;6271341;22;20106;-84
2022/10/21 04:50:15;;;;;;;17.13;13.20;;;;;;;9.93;100.00;100479.84;6269320;22;20004;-84
2022/10/21 04:52:40;;;;;;;19.23;12.68;;;;;;;9.89;100.00;100470.31;6274312;22;20078;-86
2022/10/21 04:55:06;;;;;;;19.17;12.90;;;;;;;9.90;100.00;100463.22;6273302;22;20023;-85
2022/10/21 04:57:31;;;;;;;19.30;12.20;;;;;;;9.90;100.00;100469.38;6271357;22;20007;-85
2022/10/21 04:59:57;;;;;;;15.77;12.52;;;;;;;9.92;100.00;100462.19;6272139;22;20011;-82
2022/10/21 05:02:23;;;;;;;17.17;12.50;;;;;;;9.97;100.00;100460.13;6273138;22;20428;-85
2022/10/21 05:04:48;;;;;;;18.55;12.90;;;;;;;9.93;100.00;100463.91;6271245;22;20338;-85
2022/10/21 05:07:14;;;;;;;16.38;11.80;;;;;;;9.92;100.00;100461.34;6269715;22;20011;-85
2022/10/21 05:09:39;;;;;;;15.57;11.98;;;;;;;9.92;100.00;100456.88;6270538;22;20007;-84
2022/10/21 05:12:04;;;;;;;15.82;11.93;;;;;;;9.96;100.00;100458.44;6267936;22;20639;-85
2022/10/21 05:14:29;;;;;;;19.02;12.27;;;;;;;9.93;100.00;100457.72;6272491;22;20007;-85
2022/10/21 05:16:55;;;;;;;16.17;12.20;;;;;;;9.94;100.00;100449.66;6271647;22;20017;-86
2022/10/21 05:19:20;;;;;;;15.23;11.55;;;;;;;9.91;100.00;100446.34;6273834;22;20011;-85
2022/10/21 05:21:46;;;;;;;14.15;11.20;;;;;;;9.90;100.00;100441.94;6272113;22;20007;-86
2022/10/21 05:24:12;;;;;;;17.02;11.68;;;;;;;9.90;100.00;100449.91;6271674;22;20030;-85
2022/10/21 05:26:38;;;;;;;14.43;10.10;;;;;;;9.90;100.00;100439.28;6270516;22;20085;-85
2022/10/21 05:29:03;;;;;;;14.40;10.07;;;;;;;9.87;100.00;100436.81;6269888;22;20000;-85
2022/10/21 05:31:28;;;;;;;14.05;10.43;;;;;;;9.87;100.00;100436.81;6269260;22;20008;-85
2022/10/21 05:33:53;;;;;;;16.48;10.80;;;;;;;9.89;100.00;100441.09;6268254;22;20481;-84
2022/10/21 05:36:19;;;;;;;13.00;9.60;;;;;;;9.84;100.00;100426.34;6271367;22;19998;-86
2022/10/21 05:38:44;;;;;;;14.80;9.43;;;;;;;9.90;100.00;100428.66;6271790;22;20413;-83
2022/10/21 05:41:09;;;;;;;14.95;10.15;;;;;;;9.90;100.00;100429.50;6268879;22;20046;-85
2022/10/21 05:43:36;;;;;;;15.55;9.88;;;;;;;9.89;100.00;100435.78;6273020;22;19999;-85
2022/10/21 05:46:02;;;;;;;12.73;9.40;;;;;;;9.85;100.00;100418.28;6271741;22;20012;-83
2022/10/21 05:48:28;;;;;;;12.55;9.27;;;;;;;9.86;100.00;100419.97;6274910;22;20007;-86
2022/10/21 05:50:54;;;;;;;15.10;9.20;;;;;;;9.90;100.00;100412.69;6273000;22;20376;-85
2022/10/21 05:53:22;;;;;;;14.07;9.20;;;;;;;9.90;100.00;100421.53;6274130;22;20034;-84
2022/10/21 05:56:01;;;;;;;13.70;8.82;;;;;;;9.88;100.00;100423.44;6274518;22;20436;-84
2022/10/21 05:58:28;;;;;;;14.07;9.52;;;;;;;9.90;100.00;100415.34;6274774;22;20078;-85
2022/10/21 06:00:54;;;;;;;12.63;9.57;;;;;;;9.93;100.00;100424.03;6269499;22;20004;-84
2022/10/21 06:03:31;;;;;;;12.20;8.90;;;;;;;9.92;100.00;100419.66;6274446;22;20445;-84
2022/10/21 06:06:03;;;;;;;11.32;9.15;;;;;;;9.94;100.00;100425.75;6275461;22;20008;-84
2022/10/21 06:08:31;;;;;;;11.98;9.32;;;;;;;9.94;100.00;100416.91;6275618;22;20333;-85
2022/10/21 06:11:08;;;;;;;13.95;8.98;;;;;;;9.95;100.00;100418.66;6270846;22;20007;-85
2022/10/21 06:13:34;;;;;;;13.68;8.68;;;;;;;10.01;100.00;100410.31;6270801;22;20011;-85
2022/10/21 06:16:00;;;;;;;14.23;9.07;;;;;;;9.97;100.00;100408.78;6272787;22;20004;-84
2022/10/21 06:18:26;;;;;;;12.50;9.68;;;;;;;9.94;100.00;100411.59;6272124;22;20061;-84
2022/10/21 06:20:51;;;;;;;10.95;8.90;;;;;;;10.03;100.00;100412.88;6272873;22;20010;-84
2022/10/21 06:23:17;;;;;;;12.77;8.38;;;;;;;9.97;100.00;100408.78;6273931;22;20333;-84
2022/10/21 06:25:52;;;;;;;19.05;12.70;;;;;;;10.06;100.00;100416.22;6289466;22;20007;-83
2022/10/21 06:28:18;;;;;;;12.95;9.63;;;;;;;10.12;100.00;100420.38;6295678;22;20016;-86
2022/10/21 06:30:43;;;;;;;13.13;10.15;;;;;;;10.12;100.00;100421.22;6290334;22;20034;-85
2022/10/21 06:33:08;;;;;;;14.00;9.98;;;;;;;10.11;100.00;100416.81;6288266;22;20011;-85
2022/10/21 06:35:33;;;;;;;11.98;9.10;;;;;;;10.12;100.00;100421.22;6286904;22;20000;-85
2022/10/21 06:37:59;;;;;;;11.63;8.77;;;;;;;10.25;100.00;100434.72;6286118;22;20322;-85
2022/10/21 06:40:24;;;;;;;13.50;8.70;;;;;;;10.27;100.00;100438.16;6286852;22;20007;-85
2022/10/21 06:42:49;;;;;;;14.75;10.10;;;;;;;10.29;100.00;100427.44;6286610;22;20376;-85
2022/10/21 06:45:15;;;;;;;15.02;9.25;;;;;;;10.38;100.00;100427.78;6283944;22;20022;-85
2022/10/21 06:47:40;;;;;;;17.55;9.68;;;;;;;10.46;100.00;100435.31;6285731;22;20010;-86
2022/10/21 06:50:06;;;;;;;14.57;10.00;;;;;;;10.47;100.00;100443.19;6280230;22;20010;-86
2022/10/21 06:52:31;;;;;;;14.63;9.52;;;;;;;10.51;100.00;100443.03;6280283;22;19999;-86
2022/10/21 06:54:57;;;;;;;15.32;10.05;;;;;;;10.61;100.00;100454.84;6274770;22;20478;-85
2022/10/21 06:57:22;;;;;;;15.70;9.27;;;;;;;10.64;100.00;100458.22;6272987;22;20433;-83
2022/10/21 06:59:47;;;;;;;16.05;10.68;;;;;;;10.74;100.00;100461.19;6274105;22;20008;-84
2022/10/21 07:02:13;;;;;;;12.60;10.27;;;;;;;10.81;100.00;100459.91;6272823;22;20034;-86
2022/10/21 07:04:38;;;;;;;14.77;11.10;;;;;;;10.91;100.00;100479.75;6273760;22;20089;-86
2022/10/21 07:07:04;;;;;;;16.02;10.90;;;;;;;10.98;100.00;100483.75;6273197;22;20004;-85
2022/10/21 07:09:29;;;;;;;14.32;11.10;;;;;;;11.04;100.00;100487.88;6272225;22;20006;-84
2022/10/21 07:11:55;;;;;;;13.98;10.52;;;;;;;11.09;100.00;100492.94;6271698;22;20045;-86
2022/10/21 07:14:20;;;;;;;16.63;11.10;;;;;;;11.07;100.00;100481.47;6273393;22;20000;-84
2022/10/21 07:16:46;;;;;;;16.23;11.25;;;;;;;11.17;100.00;100496.00;6272648;22;20060;-84
2022/10/21 07:19:11;;;;;;;14.98;11.52;;;;;;;11.22;100.00;100489.44;6273250;22;20014;-85
2022/10/21 07:21:37;;;;;;;16.30;11.98;;;;;;;11.27;100.00;100482.97;6274330;22;20378;-85
2022/10/21 07:24:02;;;;;;;15.77;12.52;;;;;;;11.29;100.00;100484.63;6273647;22;20008;-85
2022/10/21 07:26:29;;;;;;;15.75;12.30;;;;;;;11.33;100.00;100495.91;6269187;22;20429;-85
2022/10/21 07:28:59;;;;;;;17.70;13.18;;;;;;;11.36;100.00;100485.09;6273704;22;20011;-84
2022/10/21 07:31:25;;;;;;;17.30;13.85;;;;;;;11.40;100.00;100492.81;6271427;22;20004;-85
2022/10/21 07:33:50;;;;;;;19.33;13.98;;;;;;;11.43;100.00;100489.97;6270581;22;20038;-85
2022/10/21 07:36:27;;;;;;;20.08;14.50;;;;;;;11.48;100.00;100495.88;6268829;22;20007;-86
2022/10/21 07:38:54;;;;;;;18.63;14.73;;;;;;;11.50;100.00;100487.81;6269997;22;20130;-84
2022/10/21 07:41:25;;;;;;;18.90;14.07;;;;;;;11.57;100.00;100491.78;6268389;22;20003;-83
2022/10/21 07:43:51;;;;;;;17.60;14.00;;;;;;;11.55;100.00;100482.19;6268005;22;20353;-85
2022/10/21 07:46:19;;;;;;;19.08;14.50;;;;;;;11.69;100.00;100503.53;6269105;22;20003;-84
2022/10/21 07:48:44;;;;;;;21.55;14.43;;;;;;;11.78;100.00;100499.44;6267231;22;20066;-84
2022/10/21 07:51:12;;;;;;;19.38;14.45;;;;;;;11.83;100.00;100508.91;6269093;22;20003;-84
2022/10/21 07:53:38;;;;;;;18.30;14.43;;;;;;;11.90;100.00;100501.38;6271380;22;19983;-85
2022/10/21 07:56:14;;;;;;;17.38;14.52;;;;;;;12.01;100.00;100498.06;6269539;22;20007;-86
2022/10/21 07:58:40;;;;;;;18.15;13.20;;;;;;;12.11;100.00;100505.38;6271118;22;20046;-83
2022/10/21 08:01:07;;;;;;;20.33;13.70;;;;;;;12.17;100.00;100504.16;6269859;22;20003;-85
2022/10/21 08:03:34;;;;;;;17.17;13.82;;;;;;;12.22;100.00;100502.03;6270351;22;20090;-85
2022/10/21 08:05:59;;;;;;;17.13;13.30;;;;;;;12.17;100.00;100496.16;6270293;22;20436;-84
2022/10/21 08:08:26;;;;;;;15.38;13.48;;;;;;;12.27;100.00;100505.28;6268914;22;20015;-85
2022/10/21 08:10:52;;;;;;;16.33;13.52;;;;;;;12.27;100.00;100499.94;6270607;22;20004;-85
2022/10/21 08:13:18;;;;;;;16.05;12.43;;;;;;;12.20;100.00;100502.13;6271311;22;19999;-86
2022/10/21 08:15:45;;;;;;;21.23;13.30;;;;;;;12.18;100.00;100496.03;6271838;22;20003;-85
2022/10/21 08:18:11;;;;;;;17.52;13.73;;;;;;;12.14;100.00;100499.00;6270998;22;20008;-87
2022/10/21 08:20:44;;;;;;;17.80;13.32;;;;;;;12.08;100.00;100515.38;6270719;22;20007;-84
2022/10/21 08:23:11;;;;;;;16.63;12.95;;;;;;;12.03;100.00;100512.16;6272244;22;20003;-84
2022/10/21 08:25:36;;;;;;;15.10;13.52;;;;;;;11.98;100.00;100508.91;6272660;22;20452;-85
2022/10/21 08:28:03;;;;;;;19.20;14.10;;;;;;;11.98;100.00;100522.25;6273842;22;20000;-84
2022/10/21 08:30:30;;;;;;;20.98;14.27;;;;;;;11.99;100.00;100518.63;6271432;22;20432;-85
2022/10/21 08:32:57;;;;;;;22.30;14.52;;;;;;;12.00;100.00;100518.56;6297347;22;20015;-85
2022/10/21 08:35:22;;;;;;;19.77;15.50;;;;;;;12.08;100.00;100537.59;6272687;22;20015;-86
2022/10/21 08:37:48;;;;;;;19.98;15.75;;;;;;;12.12;100.00;100530.25;6274007;22;20039;-85
2022/10/21 08:40:14;;;;;;;16.75;14.02;;;;;;;12.13;100.00;100524.81;6271531;22;20003;-86
2022/10/21 08:42:44;;;;;;;21.42;15.35;;;;;;;12.10;100.00;100533.00;6272084;22;20471;-85
2022/10/21 08:45:20;;;;;;;18.88;14.73;;;;;;;12.14;100.00;100536.34;6273306;22;20003;-85
2022/10/21 08:47:51;;;;;;;17.77;15.05;;;;;;;12.12;100.00;100528.47;6272821;22;20011;-87
2022/10/21 08:50:27;;;;;;;20.17;14.52;;;;;;;12.09;100.00;100520.63;6269797;22;20095;-85
2022/10/21 08:53:01;;;;;;;20.15;15.35;;;;;;;12.07;100.00;100517.19;6272091;22;20108;-86
2022/10/21 08:55:35;;;;;;;21.05;16.38;;;;;;;12.11;100.00;100516.06;6270855;22;20057;-85
2022/10/21 08:58:02;;;;;;;20.60;16.00;;;;;;;12.17;100.00;100522.84;6273399;22;20054;-87
2022/10/21 09:00:51;;;;;;;18.00;14.57;;;;;;;12.18;100.00;100525.41;6272686;22;20381;-87
2022/10/21 09:03:30;;;;;;;19.83;13.70;;;;;;;12.21;100.00;100533.22;6270329;22;20011;-87
2022/10/21 09:06:18;;;;;;;21.52;14.05;;;;;;;12.27;100.00;100531.97;6271338;22;20018;-86
2022/10/21 09:09:25;;;;;;;21.77;14.73;;;;;;;12.33;100.00;100534.25;6272376;22;20026;-88
2022/10/21 09:11:53;;;;;;;22.75;16.25;;;;;;;12.42;100.00;100539.00;6296936;22;19998;-88
2022/10/21 09:14:31;;;;;;;19.08;13.52;;;;;;;12.51;100.00;100537.56;6297779;22;20011;-89
2022/10/21 09:16:59;;;;;;;18.77;14.27;;;;;;;12.60;100.00;100546.78;6299456;22;20004;-87
2022/10/21 09:19:37;;;;;;;20.20;14.50;;;;;;;12.67;100.00;100548.13;6299877;22;19995;-90
2022/10/21 09:22:08;;;;;;;18.58;13.25;;;;;;;12.74;100.00;100541.41;6296739;22;20055;-89
2022/10/21 09:24:40;;;;;;;21.02;13.68;;;;;;;12.92;100.00;100534.03;6287144;22;19991;-88
2022/10/21 09:27:09;;;;;;;17.40;12.00;;;;;;;13.03;100.00;100544.00;6284865;22;20077;-89
2022/10/21 09:29:43;;;;;;;18.98;12.70;;;;;;;13.12;100.00;100541.56;6276476;22;20053;-88
2022/10/21 09:32:16;;;;;;;19.13;12.80;;;;;;;13.30;100.00;100550.25;6280361;22;20022;-90
2022/10/21 09:34:47;;;;;;;21.13;11.55;;;;;;;13.35;100.00;100553.44;6286858;22;20035;-89
2022/10/21 09:37:37;;;;;;;12.88;10.02;;;;;;;13.45;100.00;100548.34;6287755;22;20003;-89
2022/10/21 09:40:13;;;;;;;16.15;10.48;;;;;;;13.44;100.00;100546.63;6282957;22;20042;-88
2022/10/21 09:42:39;;;;;;;16.33;10.52;;;;;;;13.53;100.00;100551.34;6280805;22;20007;-88
2022/10/21 09:45:08;;;;;;;17.95;11.43;;;;;;;13.59;100.00;100550.09;6276786;22;20014;-87
2022/10/21 09:47:33;;;;;;;14.60;10.68;;;;;;;13.60;100.00;100546.47;6277686;22;20015;-88
2022/10/21 09:50:01;;;;;;;15.02;10.25;;;;;;;13.61;100.00;100554.34;6274155;22;19996;-87
2022/10/21 09:52:30;;;;;;;14.05;9.80;;;;;;;13.66;100.00;100552.22;6276001;22;20086;-88
2022/10/21 09:54:56;;;;;;;15.38;11.05;;;;;;;13.81;100.00;100550.31;6276837;22;20035;-87
2022/10/21 09:57:27;;;;;;;15.38;10.93;;;;;;;13.86;100.00;100553.53;6276950;22;20015;-88
2022/10/21 09:59:57;;;;;;;16.40;10.40;;;;;;;13.93;100.00;100552.16;6276504;22;20012;-89
2022/10/21 10:02:36;;;;;;;15.27;10.25;;;;;;;14.00;100.00;100560.59;6274415;22;20011;-86
2022/10/21 10:05:21;;;;;;;15.27;10.48;;;;;;;14.11;100.00;100559.84;6275191;22;20030;-89
2022/10/21 10:07:46;;;;;;;14.55;9.80;;;;;;;14.13;100.00;100555.28;6275945;22;20067;-89
2022/10/21 10:10:29;;;;;;;13.40;9.77;;;;;;;14.26;100.00;100571.31;6277090;22;20003;-88
2022/10/21 10:12:56;;;;;;;11.88;9.25;;;;;;;14.28;100.00;100567.56;6275525;22;20004;-87
2022/10/21 10:15:31;;;;;;;18.40;10.02;;;;;;;14.40;100.00;100564.00;6275232;22;20004;-88
2022/10/21 10:17:56;;;;;;;15.38;9.55;;;;;;;14.46;100.00;100557.34;6272618;22;20330;-87
2022/10/21 10:20:22;;;;;;;14.45;8.30;;;;;;;14.48;100.00;100560.78;6276930;22;20036;-87
2022/10/21 10:22:57;;;;;;;13.68;8.82;;;;;;;14.61;100.00;100574.19;6278389;22;20007;-87
2022/10/21 10:25:25;;;;;;;13.25;9.00;;;;;;;14.78;100.00;100573.81;6274178;22;20155;-88
2022/10/21 10:28:02;;;;;;;12.55;8.00;;;;;;;14.89;100.00;100565.00;6273653;22;20070;-87
2022/10/21 10:30:37;;;;;;;12.77;7.35;;;;;;;15.27;100.00;100559.47;6275771;22;20053;-88
2022/10/21 10:33:23;;;;;;;9.93;7.25;;;;;;;15.52;100.00;100561.16;6270899;22;20008;-86
2022/10/21 10:35:56;;;;;;;9.82;6.90;;;;;;;15.74;100.00;100568.47;6273639;22;20003;-87
2022/10/21 10:38:24;;;;;;;9.53;6.37;;;;;;;16.06;100.00;100570.50;6271147;22;20026;-87
2022/10/21 10:40:50;;;;;;;9.77;5.80;;;;;;;16.27;100.00;100565.25;6270901;22;20337;-88
2022/10/21 10:43:41;;;;;;;10.57;5.57;;;;;;;16.55;100.00;100563.91;6269997;22;20205;-88
2022/10/21 10:46:11;;;;;;;5.97;4.63;;;;;;;16.59;100.00;100565.34;6270268;22;20011;-86
2022/10/21 10:48:45;;;;;;;10.88;4.10;;;;;;;16.58;100.00;100558.28;6270092;22;20007;-85
2022/10/21 10:51:32;;;;;;;7.32;3.80;;;;;;;16.59;100.00;100552.78;6269705;22;20006;-87
2022/10/21 10:54:19;;;;;;;6.00;3.55;;;;;;;16.58;100.00;100555.59;6270433;22;20577;-86
2022/10/21 10:57:04;;;;;;;5.47;3.55;;;;;;;16.60;100.00;100557.19;6269727;22;20008;-87
2022/10/21 10:59:47;;;;;;;6.45;3.30;;;;;;;16.89;100.00;100549.50;6253389;22;20043;-85
2022/10/21 11:02:50;;;;;;;4.87;3.03;;;;;;;18.04;100.00;100555.94;6268461;22;19999;-85
2022/10/21 11:05:27;;;;;;;6.30;2.63;;;;;;;19.70;92.79;100539.22;6270026;22;20444;-86
2022/10/21 11:07:56;;;;;;;4.57;3.08;;;;;;;21.38;81.95;100549.00;6269342;22;20437;-85
2022/10/21 11:10:35;;;;;;;4.45;2.78;;;;;;;22.00;74.93;100546.28;6269787;22;20004;-86
2022/10/21 11:13:07;;;;;;;4.00;2.50;;;;;;;22.71;71.77;100539.75;6269699;22;20006;-86
2022/10/21 11:15:54;;;;;;;4.35;2.40;;;;;;;22.98;77.88;100549.50;6269995;22;20310;-85